sensor_id;sensor_type;location;lat;lon;timestamp;temperature;humidity
8953;DHT22;4511;50.890;8.054;2024-01-27T00:02:05;5.00;99.90
8953;DHT22;4511;50.890;8.054;2024-01-27T00:04:32;4.90;99.90
8953;DHT22;4511;50.890;8.054;2024-01-27T00:06:58;4.80;99.90
8953;DHT22;4511;50.890;8.054;2024-01-27T00:09:26;4.80;99.90
8953;DHT22;4511;50.890;8.054;2024-01-27T00:11:53;4.90;99.90
8953;DHT22;4511;50.890;8.054;2024-01-27T00:14:20;4.90;99.90
8953;DHT22;4511;50.890;8.054;2024-01-27T00:16:46;4.90;99.90
8953;DHT22;4511;50.890;8.054;2024-01-27T00:19:13;4.80;99.90
8953;DHT22;4511;50.890;8.054;2024-01-27T00:21:40;4.90;99.90
8953;DHT22;4511;50.890;8.054;2024-01-27T00:24:07;5.00;99.90
8953;DHT22;4511;50.890;8.054;2024-01-27T00:26:35;5.00;99.90
8953;DHT22;4511;50.890;8.054;2024-01-27T00:29:02;5.00;99.90
8953;DHT22;4511;50.890;8.054;2024-01-27T00:31:29;5.10;99.90
8953;DHT22;4511;50.890;8.054;2024-01-27T00:33:56;5.00;99.90
8953;DHT22;4511;50.890;8.054;2024-01-27T00:36:22;5.00;99.90
8953;DHT22;4511;50.890;8.054;2024-01-27T00:38:49;4.90;99.90
8953;DHT22;4511;50.890;8.054;2024-01-27T00:41:16;4.90;99.90
8953;DHT22;4511;50.890;8.054;2024-01-27T00:43:45;4.90;99.90
8953;DHT22;4511;50.890;8.054;2024-01-27T00:46:12;4.90;99.90
8953;DHT22;4511;50.890;8.054;2024-01-27T00:48:39;4.90;99.90
8953;DHT22;4511;50.890;8.054;2024-01-27T00:51:05;5.00;99.90
8953;DHT22;4511;50.890;8.054;2024-01-27T00:53:32;5.00;99.90
8953;DHT22;4511;50.890;8.054;2024-01-27T00:55:59;5.00;99.90
8953;DHT22;4511;50.890;8.054;2024-01-27T00:58:26;4.90;99.90
8953;DHT22;4511;50.890;8.054;2024-01-27T01:00:54;4.90;99.90
8953;DHT22;4511;50.890;8.054;2024-01-27T01:03:21;4.90;99.90
8953;DHT22;4511;50.890;8.054;2024-01-27T01:05:48;5.00;99.90
8953;DHT22;4511;50.890;8.054;2024-01-27T01:08:15;4.90;99.90
8953;DHT22;4511;50.890;8.054;2024-01-27T01:10:41;5.00;99.90
8953;DHT22;4511;50.890;8.054;2024-01-27T01:13:08;4.90;99.90
8953;DHT22;4511;50.890;8.054;2024-01-27T01:15:35;5.00;99.90
8953;DHT22;4511;50.890;8.054;2024-01-27T01:18:03;5.00;99.90
8953;DHT22;4511;50.890;8.054;2024-01-27T01:20:30;5.00;99.90
8953;DHT22;4511;50.890;8.054;2024-01-27T01:22:58;5.00;99.90
8953;DHT22;4511;50.890;8.054;2024-01-27T01:25:24;5.00;99.90
8953;DHT22;4511;50.890;8.054;2024-01-27T01:27:51;4.90;99.90
8953;DHT22;4511;50.890;8.054;2024-01-27T01:30:18;4.90;99.90
8953;DHT22;4511;50.890;8.054;2024-01-27T01:32:45;4.90;99.90
8953;DHT22;4511;50.890;8.054;2024-01-27T01:35:13;4.90;99.90
8953;DHT22;4511;50.890;8.054;2024-01-27T01:37:39;4.90;99.90
8953;DHT22;4511;50.890;8.054;2024-01-27T01:40:07;4.80;99.90
8953;DHT22;4511;50.890;8.054;2024-01-27T01:42:34;4.80;99.90
8953;DHT22;4511;50.890;8.054;2024-01-27T01:45:01;4.70;99.90
8953;DHT22;4511;50.890;8.054;2024-01-27T01:47:27;4.70;99.90
8953;DHT22;4511;50.890;8.054;2024-01-27T01:49:55;4.60;99.90
8953;DHT22;4511;50.890;8.054;2024-01-27T01:52:24;4.60;99.90
8953;DHT22;4511;50.890;8.054;2024-01-27T01:54:51;4.60;99.90
8953;DHT22;4511;50.890;8.054;2024-01-27T01:57:17;4.60;99.90
8953;DHT22;4511;50.890;8.054;2024-01-27T01:59:45;4.60;99.90
8953;DHT22;4511;50.890;8.054;2024-01-27T02:02:12;4.60;99.90
8953;DHT22;4511;50.890;8.054;2024-01-27T02:04:40;4.60;99.90
8953;DHT22;4511;50.890;8.054;2024-01-27T02:07:07;4.60;99.90
8953;DHT22;4511;50.890;8.054;2024-01-27T02:09:35;4.60;99.90
8953;DHT22;4511;50.890;8.054;2024-01-27T02:12:02;4.50;99.90
8953;DHT22;4511;50.890;8.054;2024-01-27T02:14:28;4.50;99.90
8953;DHT22;4511;50.890;8.054;2024-01-27T02:16:56;4.50;99.90
8953;DHT22;4511;50.890;8.054;2024-01-27T02:19:22;4.40;99.90
8953;DHT22;4511;50.890;8.054;2024-01-27T02:21:49;4.40;99.90
8953;DHT22;4511;50.890;8.054;2024-01-27T02:24:17;4.40;99.90
8953;DHT22;4511;50.890;8.054;2024-01-27T02:26:44;4.30;99.90
8953;DHT22;4511;50.890;8.054;2024-01-27T02:29:11;4.20;99.90
8953;DHT22;4511;50.890;8.054;2024-01-27T02:31:37;4.10;99.90
8953;DHT22;4511;50.890;8.054;2024-01-27T02:34:04;4.20;99.90
8953;DHT22;4511;50.890;8.054;2024-01-27T02:36:31;4.10;99.90
8953;DHT22;4511;50.890;8.054;2024-01-27T02:38:57;4.00;99.90
8953;DHT22;4511;50.890;8.054;2024-01-27T02:41:25;4.00;99.90
8953;DHT22;4511;50.890;8.054;2024-01-27T02:43:52;3.90;99.90
8953;DHT22;4511;50.890;8.054;2024-01-27T02:46:19;3.90;99.90
8953;DHT22;4511;50.890;8.054;2024-01-27T02:48:46;3.90;99.90
8953;DHT22;4511;50.890;8.054;2024-01-27T02:51:12;3.80;99.90
8953;DHT22;4511;50.890;8.054;2024-01-27T02:53:39;3.80;99.90
8953;DHT22;4511;50.890;8.054;2024-01-27T02:56:07;3.80;99.90
8953;DHT22;4511;50.890;8.054;2024-01-27T02:58:35;3.70;99.90
8953;DHT22;4511;50.890;8.054;2024-01-27T03:01:02;3.70;99.90
8953;DHT22;4511;50.890;8.054;2024-01-27T03:03:29;3.60;99.90
8953;DHT22;4511;50.890;8.054;2024-01-27T03:05:55;3.70;99.90
8953;DHT22;4511;50.890;8.054;2024-01-27T03:08:22;3.70;99.90
8953;DHT22;4511;50.890;8.054;2024-01-27T03:10:49;3.70;99.90
8953;DHT22;4511;50.890;8.054;2024-01-27T03:13:16;3.70;99.90
8953;DHT22;4511;50.890;8.054;2024-01-27T03:15:45;3.60;99.90
8953;DHT22;4511;50.890;8.054;2024-01-27T03:18:12;3.60;99.90
8953;DHT22;4511;50.890;8.054;2024-01-27T03:20:39;3.50;99.90
8953;DHT22;4511;50.890;8.054;2024-01-27T03:23:05;3.50;99.90
8953;DHT22;4511;50.890;8.054;2024-01-27T03:25:33;3.50;99.90
8953;DHT22;4511;50.890;8.054;2024-01-27T03:28:00;3.50;99.90
8953;DHT22;4511;50.890;8.054;2024-01-27T03:30:27;3.40;99.90
8953;DHT22;4511;50.890;8.054;2024-01-27T03:32:55;3.30;99.90
8953;DHT22;4511;50.890;8.054;2024-01-27T03:35:22;3.40;99.90
8953;DHT22;4511;50.890;8.054;2024-01-27T03:37:49;3.40;99.90
8953;DHT22;4511;50.890;8.054;2024-01-27T03:40:17;3.40;99.90
8953;DHT22;4511;50.890;8.054;2024-01-27T03:42:43;3.20;99.90
8953;DHT22;4511;50.890;8.054;2024-01-27T03:45:10;3.20;99.90
8953;DHT22;4511;50.890;8.054;2024-01-27T03:47:37;3.10;99.90
8953;DHT22;4511;50.890;8.054;2024-01-27T03:50:06;3.10;99.90
8953;DHT22;4511;50.890;8.054;2024-01-27T03:52:34;3.10;99.90
8953;DHT22;4511;50.890;8.054;2024-01-27T03:55:01;3.00;99.90
8953;DHT22;4511;50.890;8.054;2024-01-27T03:57:28;3.00;99.90
8953;DHT22;4511;50.890;8.054;2024-01-27T03:59:54;2.90;99.90
8953;DHT22;4511;50.890;8.054;2024-01-27T04:02:21;2.90;99.90
8953;DHT22;4511;50.890;8.054;2024-01-27T04:04:48;2.90;99.90
8953;DHT22;4511;50.890;8.054;2024-01-27T04:07:16;3.00;99.90
8953;DHT22;4511;50.890;8.054;2024-01-27T04:09:42;3.00;99.90
8953;DHT22;4511;50.890;8.054;2024-01-27T04:12:09;2.90;99.90
8953;DHT22;4511;50.890;8.054;2024-01-27T04:14:36;2.90;99.90
8953;DHT22;4511;50.890;8.054;2024-01-27T04:17:03;2.90;99.90
8953;DHT22;4511;50.890;8.054;2024-01-27T04:19:30;2.80;99.90
8953;DHT22;4511;50.890;8.054;2024-01-27T04:21:57;2.80;99.90
8953;DHT22;4511;50.890;8.054;2024-01-27T04:24:25;2.70;99.90
8953;DHT22;4511;50.890;8.054;2024-01-27T04:26:52;2.70;99.90
8953;DHT22;4511;50.890;8.054;2024-01-27T04:29:19;2.60;99.90
8953;DHT22;4511;50.890;8.054;2024-01-27T04:31:45;2.60;99.90
8953;DHT22;4511;50.890;8.054;2024-01-27T04:34:12;2.60;99.90
8953;DHT22;4511;50.890;8.054;2024-01-27T04:36:39;2.50;99.90
8953;DHT22;4511;50.890;8.054;2024-01-27T04:39:06;2.50;99.90
8953;DHT22;4511;50.890;8.054;2024-01-27T04:41:34;2.50;99.90
8953;DHT22;4511;50.890;8.054;2024-01-27T04:44:01;2.50;99.90
8953;DHT22;4511;50.890;8.054;2024-01-27T04:46:27;2.50;99.90
8953;DHT22;4511;50.890;8.054;2024-01-27T04:48:54;2.50;99.90
8953;DHT22;4511;50.890;8.054;2024-01-27T04:51:21;2.50;99.90
8953;DHT22;4511;50.890;8.054;2024-01-27T04:53:48;2.50;99.90
8953;DHT22;4511;50.890;8.054;2024-01-27T04:56:14;2.50;99.90
8953;DHT22;4511;50.890;8.054;2024-01-27T04:58:43;2.50;99.90
8953;DHT22;4511;50.890;8.054;2024-01-27T05:01:09;2.50;99.90
8953;DHT22;4511;50.890;8.054;2024-01-27T05:03:36;2.50;99.90
8953;DHT22;4511;50.890;8.054;2024-01-27T05:06:03;2.60;99.90
8953;DHT22;4511;50.890;8.054;2024-01-27T05:08:30;2.60;99.90
8953;DHT22;4511;50.890;8.054;2024-01-27T05:10:56;2.40;99.90
8953;DHT22;4511;50.890;8.054;2024-01-27T05:13:23;2.50;99.90
8953;DHT22;4511;50.890;8.054;2024-01-27T05:15:51;2.40;99.90
8953;DHT22;4511;50.890;8.054;2024-01-27T05:18:18;2.30;99.90
8953;DHT22;4511;50.890;8.054;2024-01-27T05:20:45;2.30;99.90
8953;DHT22;4511;50.890;8.054;2024-01-27T05:23:11;2.30;99.90
8953;DHT22;4511;50.890;8.054;2024-01-27T05:25:38;2.20;99.90
8953;DHT22;4511;50.890;8.054;2024-01-27T05:28:05;2.20;99.90
8953;DHT22;4511;50.890;8.054;2024-01-27T05:30:32;2.20;99.90
8953;DHT22;4511;50.890;8.054;2024-01-27T05:33:00;2.10;99.90
8953;DHT22;4511;50.890;8.054;2024-01-27T05:35:27;2.10;99.90
8953;DHT22;4511;50.890;8.054;2024-01-27T05:37:54;2.10;99.90
8953;DHT22;4511;50.890;8.054;2024-01-27T05:40:21;2.20;99.90
8953;DHT22;4511;50.890;8.054;2024-01-27T05:42:47;2.20;99.90
8953;DHT22;4511;50.890;8.054;2024-01-27T05:45:14;2.20;99.90
8953;DHT22;4511;50.890;8.054;2024-01-27T05:47:41;2.10;99.90
8953;DHT22;4511;50.890;8.054;2024-01-27T05:50:10;2.10;99.90
8953;DHT22;4511;50.890;8.054;2024-01-27T05:52:37;2.10;99.90
8953;DHT22;4511;50.890;8.054;2024-01-27T05:55:04;2.00;99.90
8953;DHT22;4511;50.890;8.054;2024-01-27T05:57:32;2.00;99.90
8953;DHT22;4511;50.890;8.054;2024-01-27T05:59:59;1.90;99.90
8953;DHT22;4511;50.890;8.054;2024-01-27T06:02:25;1.90;99.90
8953;DHT22;4511;50.890;8.054;2024-01-27T06:04:52;1.90;99.90
8953;DHT22;4511;50.890;8.054;2024-01-27T06:07:20;1.90;99.90
8953;DHT22;4511;50.890;8.054;2024-01-27T06:09:47;1.90;99.90
8953;DHT22;4511;50.890;8.054;2024-01-27T06:12:13;2.00;99.90
8953;DHT22;4511;50.890;8.054;2024-01-27T06:14:41;2.00;99.90
8953;DHT22;4511;50.890;8.054;2024-01-27T06:17:07;2.00;99.90
8953;DHT22;4511;50.890;8.054;2024-01-27T06:19:34;2.00;99.90
8953;DHT22;4511;50.890;8.054;2024-01-27T06:22:01;2.00;99.90
8953;DHT22;4511;50.890;8.054;2024-01-27T06:24:29;2.00;99.90
8953;DHT22;4511;50.890;8.054;2024-01-27T06:26:56;1.90;99.90
8953;DHT22;4511;50.890;8.054;2024-01-27T06:29:23;1.80;99.90
8953;DHT22;4511;50.890;8.054;2024-01-27T06:31:51;1.80;99.90
8953;DHT22;4511;50.890;8.054;2024-01-27T06:34:18;1.80;99.90
8953;DHT22;4511;50.890;8.054;2024-01-27T06:36:46;1.80;99.90
8953;DHT22;4511;50.890;8.054;2024-01-27T06:39:12;1.80;99.90
8953;DHT22;4511;50.890;8.054;2024-01-27T06:41:40;1.70;99.90
8953;DHT22;4511;50.890;8.054;2024-01-27T06:44:07;1.80;99.90
8953;DHT22;4511;50.890;8.054;2024-01-27T06:46:34;1.70;99.90
8953;DHT22;4511;50.890;8.054;2024-01-27T06:49:00;1.70;99.90
8953;DHT22;4511;50.890;8.054;2024-01-27T06:51:27;1.70;99.90
8953;DHT22;4511;50.890;8.054;2024-01-27T06:53:54;1.80;99.90
8953;DHT22;4511;50.890;8.054;2024-01-27T06:56:20;1.70;99.90
8953;DHT22;4511;50.890;8.054;2024-01-27T06:58:48;1.70;99.90
8953;DHT22;4511;50.890;8.054;2024-01-27T07:01:15;1.60;99.90
8953;DHT22;4511;50.890;8.054;2024-01-27T07:03:42;1.60;99.90
8953;DHT22;4511;50.890;8.054;2024-01-27T07:06:10;1.60;99.90
8953;DHT22;4511;50.890;8.054;2024-01-27T07:08:36;1.50;99.90
8953;DHT22;4511;50.890;8.054;2024-01-27T07:11:03;1.60;99.90
8953;DHT22;4511;50.890;8.054;2024-01-27T07:13:30;1.60;99.90
8953;DHT22;4511;50.890;8.054;2024-01-27T07:15:58;1.60;99.90
8953;DHT22;4511;50.890;8.054;2024-01-27T07:18:25;1.70;99.90
8953;DHT22;4511;50.890;8.054;2024-01-27T07:20:51;1.70;99.90
8953;DHT22;4511;50.890;8.054;2024-01-27T07:23:20;1.80;99.90
8953;DHT22;4511;50.890;8.054;2024-01-27T07:25:46;1.70;99.90
8953;DHT22;4511;50.890;8.054;2024-01-27T07:28:13;1.80;99.90
8953;DHT22;4511;50.890;8.054;2024-01-27T07:30:41;1.80;99.90
8953;DHT22;4511;50.890;8.054;2024-01-27T07:33:09;1.90;99.90
8953;DHT22;4511;50.890;8.054;2024-01-27T07:35:36;1.80;99.90
8953;DHT22;4511;50.890;8.054;2024-01-27T07:38:03;1.90;99.90
8953;DHT22;4511;50.890;8.054;2024-01-27T07:40:30;1.90;99.90
8953;DHT22;4511;50.890;8.054;2024-01-27T07:42:57;1.90;99.90
8953;DHT22;4511;50.890;8.054;2024-01-27T07:45:23;1.90;99.90
8953;DHT22;4511;50.890;8.054;2024-01-27T07:47:50;2.00;99.90
8953;DHT22;4511;50.890;8.054;2024-01-27T07:50:18;2.00;99.90
8953;DHT22;4511;50.890;8.054;2024-01-27T07:52:45;2.10;99.90
8953;DHT22;4511;50.890;8.054;2024-01-27T07:55:11;2.10;99.90
8953;DHT22;4511;50.890;8.054;2024-01-27T07:57:38;2.10;99.90
8953;DHT22;4511;50.890;8.054;2024-01-27T08:00:06;2.10;99.90
8953;DHT22;4511;50.890;8.054;2024-01-27T08:02:33;2.10;99.90
8953;DHT22;4511;50.890;8.054;2024-01-27T08:05:00;2.20;99.90
8953;DHT22;4511;50.890;8.054;2024-01-27T08:07:28;2.20;99.90
8953;DHT22;4511;50.890;8.054;2024-01-27T08:09:54;2.20;99.90
8953;DHT22;4511;50.890;8.054;2024-01-27T08:12:22;2.20;99.90
8953;DHT22;4511;50.890;8.054;2024-01-27T08:14:49;2.30;99.90
8953;DHT22;4511;50.890;8.054;2024-01-27T08:17:15;2.30;99.90
8953;DHT22;4511;50.890;8.054;2024-01-27T08:19:42;2.20;99.90
8953;DHT22;4511;50.890;8.054;2024-01-27T08:22:09;2.10;99.90
8953;DHT22;4511;50.890;8.054;2024-01-27T08:24:37;2.00;99.90
8953;DHT22;4511;50.890;8.054;2024-01-27T08:27:04;2.00;99.90
8953;DHT22;4511;50.890;8.054;2024-01-27T08:29:31;2.10;99.90
8953;DHT22;4511;50.890;8.054;2024-01-27T08:31:58;2.20;99.90
8953;DHT22;4511;50.890;8.054;2024-01-27T08:34:25;2.30;99.90
8953;DHT22;4511;50.890;8.054;2024-01-27T08:36:51;2.40;99.90
8953;DHT22;4511;50.890;8.054;2024-01-27T08:39:18;2.50;99.90
8953;DHT22;4511;50.890;8.054;2024-01-27T08:41:46;2.70;99.90
8953;DHT22;4511;50.890;8.054;2024-01-27T08:44:13;2.80;99.90
8953;DHT22;4511;50.890;8.054;2024-01-27T08:46:40;2.80;99.90
8953;DHT22;4511;50.890;8.054;2024-01-27T08:49:06;2.90;99.90
8953;DHT22;4511;50.890;8.054;2024-01-27T08:51:33;3.00;99.90
8953;DHT22;4511;50.890;8.054;2024-01-27T08:54:00;3.00;99.90
8953;DHT22;4511;50.890;8.054;2024-01-27T08:56:27;2.80;99.90
8953;DHT22;4511;50.890;8.054;2024-01-27T08:58:55;2.90;99.90
8953;DHT22;4511;50.890;8.054;2024-01-27T09:01:22;3.00;99.90
8953;DHT22;4511;50.890;8.054;2024-01-27T09:03:48;3.10;99.90
8953;DHT22;4511;50.890;8.054;2024-01-27T09:06:15;3.20;99.90
8953;DHT22;4511;50.890;8.054;2024-01-27T09:08:44;3.40;99.90
8953;DHT22;4511;50.890;8.054;2024-01-27T09:11:11;3.50;99.90
8953;DHT22;4511;50.890;8.054;2024-01-27T09:13:38;3.60;99.90
8953;DHT22;4511;50.890;8.054;2024-01-27T09:16:06;3.80;99.90
8953;DHT22;4511;50.890;8.054;2024-01-27T09:18:37;3.90;99.90
8953;DHT22;4511;50.890;8.054;2024-01-27T09:21:04;4.00;99.90
8953;DHT22;4511;50.890;8.054;2024-01-27T09:23:31;4.10;99.90
8953;DHT22;4511;50.890;8.054;2024-01-27T09:25:57;4.20;99.90
8953;DHT22;4511;50.890;8.054;2024-01-27T09:28:24;4.30;99.90
8953;DHT22;4511;50.890;8.054;2024-01-27T09:30:51;4.40;99.90
8953;DHT22;4511;50.890;8.054;2024-01-27T09:33:20;4.50;99.90
8953;DHT22;4511;50.890;8.054;2024-01-27T09:35:48;4.60;99.90
8953;DHT22;4511;50.890;8.054;2024-01-27T09:38:15;4.70;99.90
8953;DHT22;4511;50.890;8.054;2024-01-27T09:40:42;4.80;99.90
8953;DHT22;4511;50.890;8.054;2024-01-27T09:43:11;4.80;99.90
8953;DHT22;4511;50.890;8.054;2024-01-27T09:45:39;4.90;99.90
8953;DHT22;4511;50.890;8.054;2024-01-27T09:48:07;4.90;99.90
8953;DHT22;4511;50.890;8.054;2024-01-27T09:50:37;4.80;99.90
8953;DHT22;4511;50.890;8.054;2024-01-27T09:53:04;5.00;99.90
8953;DHT22;4511;50.890;8.054;2024-01-27T09:55:33;5.10;99.90
8953;DHT22;4511;50.890;8.054;2024-01-27T09:58:00;5.20;99.90
8953;DHT22;4511;50.890;8.054;2024-01-27T10:00:27;5.30;99.90
8953;DHT22;4511;50.890;8.054;2024-01-27T10:02:54;5.40;99.90
8953;DHT22;4511;50.890;8.054;2024-01-27T10:05:23;5.60;99.90
8953;DHT22;4511;50.890;8.054;2024-01-27T10:07:52;5.70;99.90
8953;DHT22;4511;50.890;8.054;2024-01-27T10:10:19;5.90;99.90
8953;DHT22;4511;50.890;8.054;2024-01-27T10:12:47;6.00;99.90
8953;DHT22;4511;50.890;8.054;2024-01-27T10:15:18;6.00;99.90
8953;DHT22;4511;50.890;8.054;2024-01-27T10:17:45;6.00;99.90
8953;DHT22;4511;50.890;8.054;2024-01-27T10:20:12;6.00;99.90
8953;DHT22;4511;50.890;8.054;2024-01-27T10:22:41;6.10;99.90
8953;DHT22;4511;50.890;8.054;2024-01-27T10:25:10;6.40;99.90
8953;DHT22;4511;50.890;8.054;2024-01-27T10:27:37;6.40;99.90
8953;DHT22;4511;50.890;8.054;2024-01-27T10:30:05;6.60;99.90
8953;DHT22;4511;50.890;8.054;2024-01-27T10:32:33;6.80;99.90
8953;DHT22;4511;50.890;8.054;2024-01-27T10:35:03;6.90;99.90
8953;DHT22;4511;50.890;8.054;2024-01-27T10:37:30;6.90;99.90
8953;DHT22;4511;50.890;8.054;2024-01-27T10:40:01;7.10;99.90
8953;DHT22;4511;50.890;8.054;2024-01-27T10:42:30;7.10;67.60
8953;DHT22;4511;50.890;8.054;2024-01-27T10:44:58;7.00;67.50
8953;DHT22;4511;50.890;8.054;2024-01-27T10:47:27;7.20;50.80
8953;DHT22;4511;50.890;8.054;2024-01-27T10:49:55;7.20;26.80
8953;DHT22;4511;50.890;8.054;2024-01-27T10:52:24;7.40;30.20
8953;DHT22;4511;50.890;8.054;2024-01-27T10:54:56;7.50;59.10
8953;DHT22;4511;50.890;8.054;2024-01-27T10:57:25;7.60;7.50
8953;DHT22;4511;50.890;8.054;2024-01-27T10:59:54;7.80;2.00
8953;DHT22;4511;50.890;8.054;2024-01-27T11:02:22;7.90;1.00
8953;DHT22;4511;50.890;8.054;2024-01-27T11:04:51;8.00;1.00
8953;DHT22;4511;50.890;8.054;2024-01-27T11:07:19;8.20;1.00
8953;DHT22;4511;50.890;8.054;2024-01-27T11:09:47;8.10;1.00
8953;DHT22;4511;50.890;8.054;2024-01-27T11:12:15;8.30;1.00
8953;DHT22;4511;50.890;8.054;2024-01-27T11:14:42;8.10;18.70
8953;DHT22;4511;50.890;8.054;2024-01-27T11:17:12;8.20;1.00
8953;DHT22;4511;50.890;8.054;2024-01-27T11:19:39;8.40;1.00
8953;DHT22;4511;50.890;8.054;2024-01-27T11:22:06;8.60;1.00
8953;DHT22;4511;50.890;8.054;2024-01-27T11:24:33;8.80;1.00
8953;DHT22;4511;50.890;8.054;2024-01-27T11:27:01;9.00;1.00
8953;DHT22;4511;50.890;8.054;2024-01-27T11:29:28;9.00;1.00
8953;DHT22;4511;50.890;8.054;2024-01-27T11:31:55;9.10;1.00
8953;DHT22;4511;50.890;8.054;2024-01-27T11:34:24;9.10;1.00
8953;DHT22;4511;50.890;8.054;2024-01-27T11:36:50;9.10;1.00
8953;DHT22;4511;50.890;8.054;2024-01-27T11:39:27;9.20;1.00
8953;DHT22;4511;50.890;8.054;2024-01-27T11:42:04;9.20;1.00
8953;DHT22;4511;50.890;8.054;2024-01-27T11:44:34;9.10;1.00
8953;DHT22;4511;50.890;8.054;2024-01-27T11:47:01;9.20;1.00
8953;DHT22;4511;50.890;8.054;2024-01-27T11:49:29;9.30;1.00
8953;DHT22;4511;50.890;8.054;2024-01-27T11:51:56;9.30;1.00
8953;DHT22;4511;50.890;8.054;2024-01-27T11:54:23;9.40;1.00
8953;DHT22;4511;50.890;8.054;2024-01-27T11:56:50;9.50;1.00
8953;DHT22;4511;50.890;8.054;2024-01-27T11:59:16;9.70;1.00
8953;DHT22;4511;50.890;8.054;2024-01-27T12:01:43;9.70;1.00
8953;DHT22;4511;50.890;8.054;2024-01-27T12:04:10;9.60;1.00
8953;DHT22;4511;50.890;8.054;2024-01-27T12:06:40;9.40;1.00
8953;DHT22;4511;50.890;8.054;2024-01-27T12:09:07;9.50;1.00
8953;DHT22;4511;50.890;8.054;2024-01-27T12:11:38;9.60;1.00
8953;DHT22;4511;50.890;8.054;2024-01-27T12:14:05;9.60;1.00
8953;DHT22;4511;50.890;8.054;2024-01-27T12:16:33;9.50;1.00
8953;DHT22;4511;50.890;8.054;2024-01-27T12:19:00;9.10;1.00
8953;DHT22;4511;50.890;8.054;2024-01-27T12:21:27;9.00;1.00
8953;DHT22;4511;50.890;8.054;2024-01-27T12:23:56;8.70;1.00
8953;DHT22;4511;50.890;8.054;2024-01-27T12:26:25;9.00;1.00
8953;DHT22;4511;50.890;8.054;2024-01-27T12:28:54;9.30;1.00
8953;DHT22;4511;50.890;8.054;2024-01-27T12:31:22;9.30;1.00
8953;DHT22;4511;50.890;8.054;2024-01-27T12:33:49;9.50;1.00
8953;DHT22;4511;50.890;8.054;2024-01-27T12:36:18;9.50;1.00
8953;DHT22;4511;50.890;8.054;2024-01-27T12:38:53;9.50;1.00
8953;DHT22;4511;50.890;8.054;2024-01-27T12:41:22;9.80;1.00
8953;DHT22;4511;50.890;8.054;2024-01-27T12:43:48;10.00;1.00
8953;DHT22;4511;50.890;8.054;2024-01-27T12:46:15;9.90;1.00
8953;DHT22;4511;50.890;8.054;2024-01-27T12:48:42;10.00;1.00
8953;DHT22;4511;50.890;8.054;2024-01-27T12:51:09;10.30;1.00
8953;DHT22;4511;50.890;8.054;2024-01-27T12:53:37;10.40;1.00
8953;DHT22;4511;50.890;8.054;2024-01-27T12:56:07;10.60;1.00
8953;DHT22;4511;50.890;8.054;2024-01-27T12:58:35;10.70;1.00
8953;DHT22;4511;50.890;8.054;2024-01-27T13:01:02;10.90;1.00
8953;DHT22;4511;50.890;8.054;2024-01-27T13:03:29;11.00;1.00
8953;DHT22;4511;50.890;8.054;2024-01-27T13:05:56;10.90;1.00
8953;DHT22;4511;50.890;8.054;2024-01-27T13:08:23;10.90;1.00
8953;DHT22;4511;50.890;8.054;2024-01-27T13:10:50;10.50;1.00
8953;DHT22;4511;50.890;8.054;2024-01-27T13:13:17;10.20;1.00
8953;DHT22;4511;50.890;8.054;2024-01-27T13:15:45;10.10;1.00
8953;DHT22;4511;50.890;8.054;2024-01-27T13:18:12;10.10;1.00
8953;DHT22;4511;50.890;8.054;2024-01-27T13:20:38;10.50;1.00
8953;DHT22;4511;50.890;8.054;2024-01-27T13:23:06;10.90;1.00
8953;DHT22;4511;50.890;8.054;2024-01-27T13:25:34;10.90;1.00
8953;DHT22;4511;50.890;8.054;2024-01-27T13:28:01;10.80;1.00
8953;DHT22;4511;50.890;8.054;2024-01-27T13:30:28;10.80;1.00
8953;DHT22;4511;50.890;8.054;2024-01-27T13:32:56;10.60;1.00
8953;DHT22;4511;50.890;8.054;2024-01-27T13:35:25;10.70;1.00
8953;DHT22;4511;50.890;8.054;2024-01-27T13:37:52;10.70;1.00
8953;DHT22;4511;50.890;8.054;2024-01-27T13:40:18;10.40;1.00
8953;DHT22;4511;50.890;8.054;2024-01-27T13:42:45;10.30;1.00
8953;DHT22;4511;50.890;8.054;2024-01-27T13:45:12;9.70;1.00
8953;DHT22;4511;50.890;8.054;2024-01-27T13:47:39;9.50;1.00
8953;DHT22;4511;50.890;8.054;2024-01-27T13:50:08;9.20;1.00
8953;DHT22;4511;50.890;8.054;2024-01-27T13:52:35;9.10;1.00
8953;DHT22;4511;50.890;8.054;2024-01-27T13:55:03;9.00;1.00
8953;DHT22;4511;50.890;8.054;2024-01-27T13:57:29;8.80;1.00
8953;DHT22;4511;50.890;8.054;2024-01-27T14:00:02;8.90;1.00
8953;DHT22;4511;50.890;8.054;2024-01-27T14:02:29;8.80;1.00
8953;DHT22;4511;50.890;8.054;2024-01-27T14:04:56;8.90;1.00
8953;DHT22;4511;50.890;8.054;2024-01-27T14:07:24;8.80;1.00
8953;DHT22;4511;50.890;8.054;2024-01-27T14:09:51;8.50;1.00
8953;DHT22;4511;50.890;8.054;2024-01-27T14:12:18;8.40;1.00
8953;DHT22;4511;50.890;8.054;2024-01-27T14:14:45;8.40;1.00
8953;DHT22;4511;50.890;8.054;2024-01-27T14:17:11;8.20;1.00
8953;DHT22;4511;50.890;8.054;2024-01-27T14:19:41;8.20;1.00
8953;DHT22;4511;50.890;8.054;2024-01-27T14:22:08;8.30;1.00
8953;DHT22;4511;50.890;8.054;2024-01-27T14:24:39;8.40;1.00
8953;DHT22;4511;50.890;8.054;2024-01-27T14:27:11;8.30;1.00
8953;DHT22;4511;50.890;8.054;2024-01-27T14:29:39;7.80;1.00
8953;DHT22;4511;50.890;8.054;2024-01-27T14:32:08;7.80;1.00
8953;DHT22;4511;50.890;8.054;2024-01-27T14:34:34;7.80;1.00
8953;DHT22;4511;50.890;8.054;2024-01-27T14:37:01;7.80;1.00
8953;DHT22;4511;50.890;8.054;2024-01-27T14:39:28;8.00;1.00
8953;DHT22;4511;50.890;8.054;2024-01-27T14:41:57;8.00;1.00
8953;DHT22;4511;50.890;8.054;2024-01-27T14:44:24;8.00;1.00
8953;DHT22;4511;50.890;8.054;2024-01-27T14:46:51;7.80;1.00
8953;DHT22;4511;50.890;8.054;2024-01-27T14:49:17;7.70;1.00
8953;DHT22;4511;50.890;8.054;2024-01-27T14:51:47;7.80;1.00
8953;DHT22;4511;50.890;8.054;2024-01-27T14:54:13;7.70;1.00
8953;DHT22;4511;50.890;8.054;2024-01-27T14:56:40;7.70;1.00
8953;DHT22;4511;50.890;8.054;2024-01-27T14:59:08;7.70;1.00
8953;DHT22;4511;50.890;8.054;2024-01-27T15:01:35;7.50;1.00
8953;DHT22;4511;50.890;8.054;2024-01-27T15:04:02;7.40;1.00
8953;DHT22;4511;50.890;8.054;2024-01-27T15:06:28;7.50;1.00
8953;DHT22;4511;50.890;8.054;2024-01-27T15:08:55;7.40;1.00
8953;DHT22;4511;50.890;8.054;2024-01-27T15:11:24;7.50;1.00
8953;DHT22;4511;50.890;8.054;2024-01-27T15:13:51;7.40;1.00
8953;DHT22;4511;50.890;8.054;2024-01-27T15:16:19;7.30;1.00
8953;DHT22;4511;50.890;8.054;2024-01-27T15:18:47;7.50;1.00
8953;DHT22;4511;50.890;8.054;2024-01-27T15:21:15;7.40;1.00
8953;DHT22;4511;50.890;8.054;2024-01-27T15:23:42;7.40;1.00
8953;DHT22;4511;50.890;8.054;2024-01-27T15:26:10;7.40;1.00
8953;DHT22;4511;50.890;8.054;2024-01-27T15:28:37;7.40;1.00
8953;DHT22;4511;50.890;8.054;2024-01-27T15:31:04;7.40;1.00
8953;DHT22;4511;50.890;8.054;2024-01-27T15:33:32;7.40;1.00
8953;DHT22;4511;50.890;8.054;2024-01-27T15:35:59;7.30;1.00
8953;DHT22;4511;50.890;8.054;2024-01-27T15:38:26;7.30;1.00
8953;DHT22;4511;50.890;8.054;2024-01-27T15:40:52;7.30;1.00
8953;DHT22;4511;50.890;8.054;2024-01-27T15:43:19;7.40;1.00
8953;DHT22;4511;50.890;8.054;2024-01-27T15:45:46;7.30;1.00
8953;DHT22;4511;50.890;8.054;2024-01-27T15:48:13;7.20;1.00
8953;DHT22;4511;50.890;8.054;2024-01-27T15:50:41;7.10;1.00
8953;DHT22;4511;50.890;8.054;2024-01-27T15:53:09;7.20;1.00
8953;DHT22;4511;50.890;8.054;2024-01-27T15:55:36;7.00;1.00
8953;DHT22;4511;50.890;8.054;2024-01-27T15:58:03;7.00;1.00
8953;DHT22;4511;50.890;8.054;2024-01-27T16:00:30;6.80;1.00
8953;DHT22;4511;50.890;8.054;2024-01-27T16:02:56;6.80;1.00
8953;DHT22;4511;50.890;8.054;2024-01-27T16:05:23;6.70;1.00
8953;DHT22;4511;50.890;8.054;2024-01-27T16:07:52;6.60;1.00
8953;DHT22;4511;50.890;8.054;2024-01-27T16:10:20;6.50;1.00
8953;DHT22;4511;50.890;8.054;2024-01-27T16:12:46;6.40;1.00
8953;DHT22;4511;50.890;8.054;2024-01-27T16:15:13;6.30;1.00
8953;DHT22;4511;50.890;8.054;2024-01-27T16:17:40;6.10;1.00
8953;DHT22;4511;50.890;8.054;2024-01-27T16:20:08;6.10;1.00
8953;DHT22;4511;50.890;8.054;2024-01-27T16:22:34;6.00;1.00